< Typhoon 195904 1959 Season Typhoon 195906 >
Typhoon 195905 (BILLIE)
General InformationTrack Information on Google Maps || Disaster Info.ResourceGoogle EarthGE AnimationAtom FeedGeoJSON
Detalied Best Track (Time Zone = UTC)
Year Month Day Hour Lat. Long. Pressure (hPa) Wind (kt) Class Image Chart
1959 7 10 12 9.0 138.0 1006 0 2 -- Chart
1959 7 10 18 9.0 137.0 1006 0 2 -- Chart
1959 7 11 00 9.5 136.0 1004 0 2 -- Chart
1959 7 11 06 11.0 135.0 1002 0 2 -- Chart
1959 7 11 12 11.8 134.2 1002 0 2 -- Chart
1959 7 11 18 12.4 133.0 1002 0 2 -- Chart
1959 7 12 00 13.0 132.0 1000 0 2 -- Chart
1959 7 12 06 13.5 131.2 996 0 9 -- Chart
1959 7 12 12 14.1 130.2 990 0 9 -- Chart
1959 7 12 18 14.7 129.4 990 0 9 -- Chart
1959 7 13 00 15.3 129.0 990 0 9 -- Chart
1959 7 13 06 16.1 128.9 985 0 9 -- Chart
1959 7 13 12 16.9 128.1 980 0 9 -- Chart
1959 7 13 18 18.2 127.1 980 0 9 -- Chart
1959 7 14 00 19.5 126.5 980 0 9 -- Chart
1959 7 14 06 20.3 125.7 980 0 9 -- Chart
1959 7 14 12 21.5 124.5 980 0 9 -- Chart
1959 7 14 18 22.5 124.1 975 0 9 -- Chart
1959 7 15 00 23.7 123.5 970 0 9 -- Chart
1959 7 15 06 25.1 122.8 970 0 9 -- Chart
1959 7 15 12 25.5 122.0 970 0 9 -- Chart
1959 7 15 18 26.1 121.3 980 0 9 -- Chart
1959 7 16 00 27.4 120.6 984 0 9 -- Chart
1959 7 16 06 28.7 120.0 990 0 9 -- Chart
1959 7 16 12 29.5 120.5 988 0 9 -- Chart
1959 7 16 18 30.3 120.8 988 0 9 -- Chart
1959 7 17 00 32.4 121.8 990 0 9 -- Chart
1959 7 17 06 35.4 123.6 990 0 9 -- Chart
1959 7 17 12 37.3 125.9 990 0 9 -- Chart
1959 7 17 18 40.5 128.5 992 0 6 -- Chart
1959 7 18 00 40.8 131.3 994 0 6 -- Chart
1959 7 18 06 41.0 132.8 996 0 6 -- Chart
1959 7 18 12 41.2 134.0 998 0 6 -- Chart
1959 7 18 18 41.3 135.3 1000 0 6 -- Chart
1959 7 19 00 41.5 136.6 1004 0 6 -- Chart
1959 7 19 06 42.1 138.0 1008 0 6 -- Chart
1959 7 19 12 42.3 139.0 1010 0 6 -- Chart
1959 7 19 18 43.0 140.0 1010 0 6 -- Chart
Japan Meteorological Agency Best Track Data | Correction Date : 1989-06-01
< Typhoon 195904 1959 Season Typhoon 195906 >

Help